sensor_id;sensor_type;location;lat;lon;timestamp;pressure;altitude;pressure_sealevel;temperature;humidity
64551;BME280;50945;44.472;-123.352;2023-11-21T20:02:50;101858.53;;;10.19;59.61
64551;BME280;50945;44.472;-123.352;2023-11-21T20:05:17;101877.06;;;9.47;61.58
64551;BME280;74341;44.510;-123.270;2023-11-21T20:07:44;101873.13;;;8.89;62.95
64551;BME280;74341;44.510;-123.270;2023-11-21T20:10:10;101877.97;;;8.55;63.73
64551;BME280;74341;44.510;-123.270;2023-11-21T20:12:37;101874.25;;;8.35;63.67
64551;BME280;74341;44.510;-123.270;2023-11-21T20:15:04;101868.38;;;8.18;63.50
64551;BME280;74341;44.510;-123.270;2023-11-21T20:17:31;101872.56;;;8.02;63.33
64551;BME280;74341;44.510;-123.270;2023-11-21T20:19:58;101864.25;;;7.71;64.74
64551;BME280;74341;44.510;-123.270;2023-11-21T20:22:24;101858.38;;;7.54;64.30
64551;BME280;74341;44.510;-123.270;2023-11-21T20:24:51;101856.19;;;7.37;65.25
64551;BME280;74341;44.510;-123.270;2023-11-21T20:27:17;101865.28;;;7.15;66.95
64551;BME280;74341;44.510;-123.270;2023-11-21T20:29:43;101863.91;;;7.09;66.97
64551;BME280;74341;44.510;-123.270;2023-11-21T20:32:10;101864.78;;;7.10;66.76
64551;BME280;74341;44.510;-123.270;2023-11-21T20:34:37;101866.50;;;6.99;75.74
64551;BME280;74341;44.510;-123.270;2023-11-21T20:37:03;101866.75;;;6.96;67.58
64551;BME280;74341;44.510;-123.270;2023-11-21T20:39:30;101862.81;;;7.00;68.40
64551;BME280;74341;44.510;-123.270;2023-11-21T20:41:58;101841.91;;;7.01;65.91
64551;BME280;74341;44.510;-123.270;2023-11-21T20:44:24;101844.03;;;6.97;66.37
64551;BME280;74341;44.510;-123.270;2023-11-21T20:46:50;101841.53;;;6.94;66.49
64551;BME280;74341;44.510;-123.270;2023-11-21T20:49:19;101840.81;;;6.92;67.06
64551;BME280;74341;44.510;-123.270;2023-11-21T20:51:45;101838.69;;;6.96;66.87
64551;BME280;74341;44.510;-123.270;2023-11-21T20:54:12;101841.91;;;7.01;67.82
64551;BME280;74341;44.510;-123.270;2023-11-21T20:56:39;101846.38;;;7.02;67.48
64551;BME280;74341;44.510;-123.270;2023-11-21T20:59:06;101855.50;;;7.01;69.88
64551;BME280;74341;44.510;-123.270;2023-11-21T21:01:34;101857.88;;;7.06;70.03
64551;BME280;74341;44.510;-123.270;2023-11-21T21:04:00;101855.50;;;7.12;78.10
64551;BME280;74341;44.510;-123.270;2023-11-21T21:06:32;101851.28;;;7.19;70.30
64551;BME280;74341;44.510;-123.270;2023-11-21T21:08:59;101833.84;;;7.22;69.92
64551;BME280;74341;44.510;-123.270;2023-11-21T21:11:25;101829.63;;;7.29;70.47
64551;BME280;74341;44.510;-123.270;2023-11-21T21:13:53;101814.28;;;7.39;69.89
64551;BME280;74341;44.510;-123.270;2023-11-21T21:16:20;101816.94;;;7.51;70.28
64551;BME280;74341;44.510;-123.270;2023-11-21T21:18:54;101818.50;;;7.65;69.57
64551;BME280;74341;44.510;-123.270;2023-11-21T21:21:22;101822.78;;;7.78;69.90
64551;BME280;74341;44.510;-123.270;2023-11-21T21:23:49;101820.84;;;7.90;69.27
64551;BME280;74341;44.510;-123.270;2023-11-21T21:26:16;101813.63;;;8.00;75.52
64551;BME280;74341;44.510;-123.270;2023-11-21T21:28:43;101811.63;;;8.03;70.54
64551;BME280;74341;44.510;-123.270;2023-11-21T21:31:09;101806.25;;;8.12;77.99
64551;BME280;74341;44.510;-123.270;2023-11-21T21:33:37;101807.44;;;8.19;69.43
64551;BME280;74341;44.510;-123.270;2023-11-21T21:36:04;101803.06;;;8.28;69.51
64551;BME280;74341;44.510;-123.270;2023-11-21T21:38:31;101804.38;;;8.34;69.75
64551;BME280;74341;44.510;-123.270;2023-11-21T21:40:59;101809.91;;;8.44;68.37
64551;BME280;74341;44.510;-123.270;2023-11-21T21:43:25;101815.81;;;8.49;76.59
64551;BME280;74341;44.510;-123.270;2023-11-21T21:45:53;101817.88;;;8.56;69.64
64551;BME280;74341;44.510;-123.270;2023-11-21T21:48:19;101813.72;;;8.62;69.19
64551;BME280;74341;44.510;-123.270;2023-11-21T21:50:46;101806.47;;;8.72;69.04
64551;BME280;74341;44.510;-123.270;2023-11-21T21:53:12;101817.25;;;8.84;69.15
64551;BME280;74341;44.510;-123.270;2023-11-21T21:55:41;101818.31;;;8.92;68.66
64551;BME280;74341;44.510;-123.270;2023-11-21T21:58:08;101812.00;;;9.02;68.47
64551;BME280;74341;44.510;-123.270;2023-11-21T22:00:34;101812.19;;;9.10;68.10
64551;BME280;74341;44.510;-123.270;2023-11-21T22:03:00;101806.59;;;9.11;68.29
64551;BME280;74341;44.510;-123.270;2023-11-21T22:05:29;101798.41;;;9.11;68.44
64551;BME280;74341;44.510;-123.270;2023-11-21T22:07:56;101803.88;;;9.11;68.84
64551;BME280;74341;44.510;-123.270;2023-11-21T22:10:22;101800.97;;;9.13;69.26
64551;BME280;74341;44.510;-123.270;2023-11-21T22:12:48;101806.16;;;9.16;68.88
64551;BME280;74341;44.510;-123.270;2023-11-21T22:15:15;101802.72;;;9.14;70.43
64551;BME280;74341;44.510;-123.270;2023-11-21T22:17:41;101806.28;;;9.14;69.44
64551;BME280;74341;44.510;-123.270;2023-11-21T22:20:10;101801.41;;;9.18;69.76
64551;BME280;74341;44.510;-123.270;2023-11-21T22:22:36;101795.41;;;9.24;69.26
64551;BME280;74341;44.510;-123.270;2023-11-21T22:25:03;101796.13;;;9.26;69.21
64551;BME280;74341;44.510;-123.270;2023-11-21T22:27:31;101799.56;;;9.28;69.10
64551;BME280;74341;44.510;-123.270;2023-11-21T22:29:57;101785.94;;;9.28;69.32
64551;BME280;74341;44.510;-123.270;2023-11-21T22:32:23;101786.66;;;9.30;68.96
64551;BME280;74341;44.510;-123.270;2023-11-21T22:34:49;101791.97;;;9.32;69.75
64551;BME280;74341;44.510;-123.270;2023-11-21T22:37:16;101785.38;;;9.35;69.99
64551;BME280;74341;44.510;-123.270;2023-11-21T22:39:42;101798.44;;;9.41;69.64
64551;BME280;74341;44.510;-123.270;2023-11-21T22:42:08;101796.44;;;9.43;69.87
64551;BME280;74341;44.510;-123.270;2023-11-21T22:44:35;101798.88;;;9.46;70.51
64551;BME280;74341;44.510;-123.270;2023-11-21T22:47:01;101797.88;;;9.47;70.35
64551;BME280;74341;44.510;-123.270;2023-11-21T22:49:28;101793.84;;;9.51;70.50
64551;BME280;74341;44.510;-123.270;2023-11-21T22:51:58;101795.44;;;9.54;71.14
64551;BME280;74341;44.510;-123.270;2023-11-21T22:54:26;101787.94;;;9.56;70.52
64551;BME280;74341;44.510;-123.270;2023-11-21T22:56:52;101793.00;;;9.60;70.24
64551;BME280;74341;44.510;-123.270;2023-11-21T22:59:19;101786.69;;;9.60;70.63
64551;BME280;74341;44.510;-123.270;2023-11-21T23:01:49;101785.38;;;9.64;71.12
64551;BME280;74341;44.510;-123.270;2023-11-21T23:04:16;101789.53;;;9.68;70.91
64551;BME280;74341;44.510;-123.270;2023-11-21T23:06:45;101790.28;;;9.70;70.72
64551;BME280;74341;44.510;-123.270;2023-11-21T23:09:12;101796.59;;;9.70;70.73
64551;BME280;74341;44.510;-123.270;2023-11-21T23:11:39;101795.56;;;9.71;70.83
64551;BME280;74341;44.510;-123.270;2023-11-21T23:14:08;101789.25;;;9.71;71.63
64551;BME280;74341;44.510;-123.270;2023-11-21T23:16:35;101795.44;;;9.73;71.07
64551;BME280;74341;44.510;-123.270;2023-11-21T23:19:02;101791.00;;;9.72;71.37
64551;BME280;74341;44.510;-123.270;2023-11-21T23:21:29;101792.69;;;9.73;71.41
64551;BME280;74341;44.510;-123.270;2023-11-21T23:23:56;101799.19;;;9.72;71.88
64551;BME280;74341;44.510;-123.270;2023-11-21T23:26:31;101779.34;;;9.70;71.71
64551;BME280;74341;44.510;-123.270;2023-11-21T23:28:58;101789.84;;;9.65;72.50
64551;BME280;74341;44.510;-123.270;2023-11-21T23:31:24;101792.84;;;9.62;72.23
64551;BME280;74341;44.510;-123.270;2023-11-21T23:33:51;101794.00;;;9.59;72.38
64551;BME280;74341;44.510;-123.270;2023-11-21T23:36:17;101799.91;;;9.55;73.05
64551;BME280;74341;44.510;-123.270;2023-11-21T23:38:47;101804.78;;;9.51;72.94
64551;BME280;74341;44.510;-123.270;2023-11-21T23:41:13;101797.00;;;9.46;73.45
64551;BME280;74341;44.510;-123.270;2023-11-21T23:43:42;101790.97;;;9.43;72.73
64551;BME280;74341;44.510;-123.270;2023-11-21T23:46:08;101799.28;;;9.41;73.00
64551;BME280;74341;44.510;-123.270;2023-11-21T23:48:35;101806.06;;;9.37;73.08
64551;BME280;74341;44.510;-123.270;2023-11-21T23:51:02;101802.75;;;9.33;73.47
64551;BME280;74341;44.510;-123.270;2023-11-21T23:53:28;101797.56;;;9.30;72.82
64551;BME280;74341;44.510;-123.270;2023-11-21T23:55:55;101800.59;;;9.27;73.81
64551;BME280;74341;44.510;-123.270;2023-11-21T23:58:22;101795.28;;;9.26;73.28
